Varzea da Roca, Brazil
Current Conditions -  °F | °C
As of 5:00 PM on Thursday 20 Nov 2014 (Local Time) from SBLE Reporting Station
Broken Clouds Broken Clouds  
Wind Chill: 75°   Ceiling: 4000
Heat Index: 75°   Visibility: 6mi
Dew Point: 72°   Wind: 5mph
Humidity: 89%   Direction: 190°S
Pressure: 29.97"   Gusts: NA
Location:  11.61°S, 40.14°W
Report Text: SBLE 202000Z 19004KT 9999 BKN040 24/22 Q1015
Loading
Personal Weather Stations






























Interactive Weather Map New forecast layout! Learn more

10-Day Weather Forecast

Advertisements
Track Severe Weather on mobile